createdAt,value
2018-09-02T00:01:44.254Z,100.00
2018-09-02T00:04:13.551Z,100.00
2018-09-02T00:06:42.812Z,100.00
2018-09-02T00:09:12.079Z,100.00
2018-09-02T00:11:41.305Z,100.00
2018-09-02T00:14:10.548Z,100.00
2018-09-02T00:16:39.796Z,100.00
2018-09-02T00:19:09.160Z,100.00
2018-09-02T00:21:38.424Z,100.00
2018-09-02T00:24:07.660Z,100.00
2018-09-02T00:26:36.931Z,100.00
2018-09-02T00:29:06.327Z,100.00
2018-09-02T00:31:35.575Z,100.00
2018-09-02T00:34:04.849Z,100.00
2018-09-02T00:36:34.110Z,100.00
2018-09-02T00:39:03.416Z,100.00
2018-09-02T00:41:32.658Z,100.00
2018-09-02T00:44:01.920Z,100.00
2018-09-02T00:46:31.162Z,100.00
2018-09-02T00:49:00.427Z,100.00
2018-09-02T00:51:29.659Z,100.00
2018-09-02T00:53:58.898Z,100.00
2018-09-02T00:56:28.147Z,100.00
2018-09-02T00:58:57.404Z,100.00
2018-09-02T01:01:26.656Z,100.00
2018-09-02T01:03:55.911Z,100.00
2018-09-02T01:06:25.492Z,100.00
2018-09-02T01:08:55.999Z,100.00
2018-09-02T01:11:25.256Z,100.00
2018-09-02T01:13:54.512Z,100.00
2018-09-02T01:16:23.755Z,100.00
2018-09-02T01:18:53.090Z,100.00
2018-09-02T01:21:22.355Z,100.00
2018-09-02T01:23:51.591Z,100.00
2018-09-02T01:26:20.866Z,100.00
2018-09-02T01:28:50.112Z,100.00
2018-09-02T01:31:19.386Z,100.00
2018-09-02T01:33:48.759Z,100.00
2018-09-02T01:36:18.026Z,100.00
2018-09-02T01:38:47.305Z,100.00
2018-09-02T01:41:16.559Z,100.00
2018-09-02T01:43:45.860Z,100.00
2018-09-02T01:46:15.131Z,100.00
2018-09-02T01:48:44.383Z,100.00
2018-09-02T01:51:13.620Z,100.00
2018-09-02T01:53:42.853Z,100.00
2018-09-02T01:56:13.343Z,100.00
2018-09-02T01:58:42.595Z,100.00
2018-09-02T02:01:11.847Z,100.00
2018-09-02T02:03:41.088Z,100.00
2018-09-02T02:06:10.366Z,100.00
2018-09-02T02:08:39.606Z,100.00
2018-09-02T02:11:08.854Z,100.00
2018-09-02T02:13:38.092Z,100.00
2018-09-02T02:16:07.622Z,100.00
2018-09-02T02:18:36.847Z,100.00
2018-09-02T02:21:06.399Z,100.00
2018-09-02T02:23:35.636Z,100.00
2018-09-02T02:26:04.880Z,100.00
2018-09-02T02:28:34.131Z,100.00
2018-09-02T02:31:03.375Z,100.00
2018-09-02T02:33:32.622Z,100.00
2018-09-02T02:36:01.843Z,100.00
2018-09-02T02:38:31.078Z,100.00
2018-09-02T02:41:00.321Z,100.00
2018-09-02T02:43:29.559Z,100.00
2018-09-02T02:45:59.059Z,100.00
2018-09-02T02:48:31.220Z,100.00
2018-09-02T02:51:00.453Z,100.00
2018-09-02T02:53:29.725Z,100.00
2018-09-02T02:55:58.954Z,100.00
2018-09-02T02:58:28.200Z,100.00
2018-09-02T03:00:57.453Z,100.00
2018-09-02T03:03:26.703Z,100.00
2018-09-02T03:05:55.941Z,100.00
2018-09-02T03:08:25.191Z,100.00
2018-09-02T03:10:54.509Z,100.00
2018-09-02T03:13:23.668Z,100.00
2018-09-02T03:15:52.944Z,100.00
2018-09-02T03:18:22.184Z,100.00
2018-09-02T03:20:51.434Z,100.00
2018-09-02T03:23:20.656Z,100.00
2018-09-02T03:25:49.902Z,100.00
2018-09-02T03:28:19.275Z,100.00
2018-09-02T03:30:48.502Z,100.00
2018-09-02T03:33:17.735Z,100.00
2018-09-02T03:35:46.984Z,100.00
2018-09-02T03:38:16.256Z,100.00
2018-09-02T03:40:45.498Z,100.00
2018-09-02T03:43:14.771Z,100.00
2018-09-02T03:45:44.088Z,100.00
2018-09-02T03:48:13.325Z,100.00
2018-09-02T03:50:42.567Z,100.00
2018-09-02T03:53:11.822Z,100.00
2018-09-02T03:55:41.046Z,100.00
2018-09-02T03:58:11.117Z,100.00
2018-09-02T04:00:40.357Z,100.00
2018-09-02T04:03:09.610Z,100.00
2018-09-02T04:05:38.837Z,100.00
2018-09-02T04:08:08.129Z,100.00
2018-09-02T04:10:37.370Z,100.00
2018-09-02T04:13:06.618Z,100.00
2018-09-02T04:15:35.864Z,100.00
2018-09-02T04:18:05.287Z,100.00
2018-09-02T04:20:35.558Z,100.00
2018-09-02T04:23:05.784Z,100.00
2018-09-02T04:25:35.281Z,100.00
2018-09-02T04:28:04.535Z,100.00
2018-09-02T04:30:33.774Z,100.00
2018-09-02T04:33:03.027Z,100.00
2018-09-02T04:35:32.303Z,100.00
2018-09-02T04:38:01.551Z,100.00
2018-09-02T04:40:30.787Z,100.00
2018-09-02T04:43:00.030Z,100.00
2018-09-02T04:45:29.254Z,100.00
2018-09-02T04:47:58.501Z,100.00
2018-09-02T04:50:27.747Z,100.00
2018-09-02T04:52:56.987Z,100.00
2018-09-02T04:55:26.227Z,100.00
2018-09-02T04:57:55.483Z,100.00
2018-09-02T05:00:24.842Z,100.00
2018-09-02T05:02:53.964Z,100.00
2018-09-02T05:05:23.226Z,100.00
2018-09-02T05:07:52.459Z,100.00
2018-09-02T05:10:21.699Z,100.00
2018-09-02T05:12:50.950Z,100.00
2018-09-02T05:15:20.211Z,100.00
2018-09-02T05:17:49.449Z,100.00
2018-09-02T05:20:18.695Z,100.00
2018-09-02T05:22:47.922Z,100.00
2018-09-02T05:25:17.146Z,100.00
2018-09-02T05:27:46.443Z,100.00
2018-09-02T05:30:15.711Z,100.00
2018-09-02T05:32:44.960Z,100.00
2018-09-02T05:35:14.230Z,100.00
2018-09-02T05:37:43.467Z,100.00
2018-09-02T05:40:12.722Z,100.00
2018-09-02T05:42:41.946Z,100.00
2018-09-02T05:45:11.438Z,100.00
2018-09-02T05:47:40.685Z,100.00
2018-09-02T05:50:10.180Z,100.00
2018-09-02T05:52:39.408Z,100.00
2018-09-02T05:55:08.664Z,100.00
2018-09-02T05:57:37.953Z,100.00
2018-09-02T06:00:07.296Z,100.00
2018-09-02T06:02:36.585Z,100.00
2018-09-02T06:05:05.832Z,100.00
2018-09-02T06:07:35.079Z,100.00
2018-09-02T06:10:04.742Z,100.00
2018-09-02T06:12:34.016Z,100.00
2018-09-02T06:15:03.250Z,100.00
2018-09-02T06:17:32.503Z,100.00
2018-09-02T06:20:01.774Z,100.00
2018-09-02T06:22:31.023Z,100.00
2018-09-02T06:25:00.276Z,100.00
2018-09-02T06:27:29.517Z,100.00
2018-09-02T06:29:58.818Z,100.00
2018-09-02T06:32:28.020Z,100.00
2018-09-02T06:34:57.312Z,100.00
2018-09-02T06:37:26.552Z,100.00
2018-09-02T06:39:55.773Z,100.00
2018-09-02T06:42:25.097Z,100.00
2018-09-02T06:44:54.591Z,100.00
2018-09-02T06:47:25.075Z,100.00
2018-09-02T06:49:54.355Z,100.00
2018-09-02T06:52:23.615Z,100.00
2018-09-02T06:54:52.867Z,100.00
2018-09-02T06:57:22.111Z,100.00
2018-09-02T06:59:51.367Z,100.00
2018-09-02T07:02:20.604Z,100.00
2018-09-02T07:04:49.855Z,100.00
2018-09-02T07:07:19.350Z,100.00
2018-09-02T07:09:48.566Z,100.00
2018-09-02T07:12:17.800Z,100.00
2018-09-02T07:14:47.063Z,98.86
2018-09-02T07:17:16.327Z,98.60
2018-09-02T07:19:45.657Z,99.30
2018-09-02T07:22:14.858Z,100.00
2018-09-02T07:24:44.086Z,98.86
2018-09-02T07:27:13.318Z,98.45
2018-09-02T07:29:42.684Z,98.83
2018-09-02T07:32:11.932Z,97.72
2018-09-02T07:34:41.235Z,96.00
2018-09-02T07:37:10.468Z,95.38
2018-09-02T07:39:39.702Z,95.17
2018-09-02T07:42:08.934Z,95.69
2018-09-02T07:44:38.481Z,93.18
2018-09-02T07:47:07.819Z,95.03
2018-09-02T07:49:37.098Z,97.19
2018-09-02T07:52:06.359Z,98.14
2018-09-02T07:54:35.641Z,98.00
2018-09-02T07:57:04.823Z,96.79
2018-09-02T07:59:34.039Z,96.16
2018-09-02T08:02:03.434Z,98.80
2018-09-02T08:04:32.694Z,96.65
2018-09-02T08:07:01.918Z,95.33
2018-09-02T08:09:31.207Z,95.99
2018-09-02T08:12:00.471Z,95.79
2018-09-02T08:14:29.711Z,94.82
2018-09-02T08:16:58.949Z,95.09
2018-09-02T08:19:28.179Z,94.48
2018-09-02T08:21:57.405Z,94.87
2018-09-02T08:29:25.149Z,98.11
2018-09-02T08:31:54.381Z,96.33
2018-09-02T08:34:23.922Z,94.46
2018-09-02T08:36:53.194Z,94.06
2018-09-02T08:39:22.395Z,93.22
2018-09-02T08:41:51.700Z,92.67
2018-09-02T08:44:21.004Z,93.50
2018-09-02T08:46:50.177Z,94.09
2018-09-02T08:49:19.412Z,92.26
2018-09-02T08:51:49.115Z,97.57
2018-09-02T08:54:18.342Z,100.00
2018-09-02T08:56:47.570Z,100.00
2018-09-02T08:59:16.822Z,100.00
2018-09-02T09:01:46.182Z,100.00
2018-09-02T09:04:15.294Z,100.00
2018-09-02T09:06:44.535Z,100.00
2018-09-02T09:09:13.879Z,100.00
2018-09-02T09:11:43.014Z,100.00
2018-09-02T09:14:12.277Z,100.00
2018-09-02T09:16:41.592Z,100.00
2018-09-02T09:19:10.763Z,100.00
2018-09-02T09:21:41.324Z,100.00
2018-09-02T09:24:10.572Z,100.00
2018-09-02T09:26:39.751Z,97.63
2018-09-02T09:29:08.975Z,92.16
2018-09-02T09:31:38.219Z,90.46
2018-09-02T09:34:07.534Z,96.71
2018-09-02T09:36:36.770Z,95.67
2018-09-02T09:39:08.927Z,91.10
2018-09-02T09:41:38.167Z,86.58
2018-09-02T09:44:07.619Z,85.51
2018-09-02T09:46:36.859Z,84.28
2018-09-02T09:49:06.082Z,82.57
2018-09-02T09:51:35.321Z,79.15
2018-09-02T09:54:04.587Z,84.91
2018-09-02T09:56:34.752Z,86.94
2018-09-02T09:59:05.160Z,84.54
2018-09-02T10:01:34.394Z,86.24
2018-09-02T10:04:03.648Z,85.78
2018-09-02T10:06:32.981Z,88.71
2018-09-02T10:09:02.211Z,78.95
2018-09-02T10:11:31.440Z,77.02
2018-09-02T10:14:00.768Z,72.58
2018-09-02T10:16:30.090Z,71.65
2018-09-02T10:18:59.355Z,76.37
2018-09-02T10:21:28.599Z,79.77
2018-09-02T10:23:57.829Z,73.42
2018-09-02T10:26:27.074Z,68.37
2018-09-02T10:28:56.312Z,50.93
2018-09-02T10:31:25.595Z,52.29
2018-09-02T10:33:54.838Z,58.42
2018-09-02T10:36:24.210Z,68.73
2018-09-02T10:38:53.423Z,62.34
2018-09-02T10:41:22.702Z,67.16
2018-09-02T10:43:51.949Z,68.11
2018-09-02T10:46:21.168Z,73.93
2018-09-02T10:48:50.520Z,70.10
2018-09-02T10:51:19.825Z,73.74
2018-09-02T10:53:49.054Z,74.73
2018-09-02T10:56:18.289Z,73.33
2018-09-02T10:58:47.538Z,76.96
2018-09-02T11:01:16.822Z,74.66
2018-09-02T11:03:46.080Z,77.55
2018-09-02T11:06:15.329Z,80.22
2018-09-02T11:08:44.641Z,86.85
2018-09-02T11:11:13.866Z,90.74
2018-09-02T11:13:43.247Z,90.38
2018-09-02T11:16:12.347Z,90.97
2018-09-02T11:18:41.588Z,91.74
2018-09-02T11:21:10.842Z,92.65
2018-09-02T11:23:40.079Z,91.62
2018-09-02T11:26:09.354Z,92.82
2018-09-02T11:28:38.615Z,90.70
2018-09-02T11:31:08.125Z,89.28
2018-09-02T11:33:37.360Z,85.93
2018-09-02T11:36:06.923Z,83.98
2018-09-02T11:38:36.151Z,80.44
2018-09-02T11:41:05.403Z,81.75
2018-09-02T11:43:34.638Z,81.80
2018-09-02T11:46:03.891Z,81.83
2018-09-02T11:48:33.120Z,81.21
2018-09-02T11:51:02.401Z,80.61
2018-09-02T11:53:31.702Z,78.60
2018-09-02T11:56:00.942Z,78.20
2018-09-02T11:58:30.150Z,77.94
2018-09-02T12:00:59.391Z,79.87
2018-09-02T12:03:28.630Z,78.21
2018-09-02T12:05:57.859Z,76.71
2018-09-02T12:08:27.104Z,76.00
2018-09-02T12:10:56.320Z,76.52
2018-09-02T12:13:25.551Z,74.83
2018-09-02T12:15:54.788Z,79.41
2018-09-02T12:18:24.078Z,74.46
2018-09-02T12:20:53.293Z,74.04
2018-09-02T12:23:22.535Z,73.75
2018-09-02T12:25:51.746Z,69.93
2018-09-02T12:28:21.248Z,62.54
2018-09-02T12:30:50.466Z,61.01
2018-09-02T12:33:19.675Z,59.97
2018-09-02T12:35:48.919Z,59.81
2018-09-02T12:38:18.155Z,69.21
2018-09-02T12:40:47.387Z,69.91
2018-09-02T12:43:16.602Z,71.97
2018-09-02T12:45:47.083Z,72.00
2018-09-02T12:48:16.322Z,73.16
2018-09-02T12:50:45.564Z,71.95
2018-09-02T12:53:14.811Z,70.31
2018-09-02T12:55:44.075Z,73.54
2018-09-02T12:58:13.430Z,76.35
2018-09-02T13:00:42.679Z,78.87
2018-09-02T13:03:11.906Z,79.11
2018-09-02T13:05:41.236Z,79.74
2018-09-02T13:08:10.523Z,81.09
2018-09-02T13:10:39.755Z,83.77
2018-09-02T13:13:08.995Z,83.82
2018-09-02T13:15:38.223Z,83.80
2018-09-02T13:18:07.617Z,83.74
2018-09-02T13:20:37.890Z,81.55
2018-09-02T13:23:07.208Z,82.14
2018-09-02T13:25:36.442Z,82.24
2018-09-02T13:28:05.726Z,76.65
2018-09-02T13:30:34.960Z,74.69
2018-09-02T13:33:04.207Z,76.39
2018-09-02T13:35:33.434Z,75.62
2018-09-02T13:38:02.679Z,78.13
2018-09-02T13:40:31.920Z,77.03
2018-09-02T13:43:01.198Z,75.99
2018-09-02T13:45:30.389Z,75.68
2018-09-02T13:47:59.622Z,73.86
2018-09-02T13:50:28.860Z,73.34
2018-09-02T13:52:58.408Z,73.78
2018-09-02T13:55:27.653Z,74.45
2018-09-02T13:57:56.901Z,75.61
2018-09-02T14:00:26.143Z,75.07
2018-09-02T14:02:55.362Z,75.48
2018-09-02T14:05:24.594Z,73.00
2018-09-02T14:07:53.896Z,73.53
2018-09-02T14:10:23.066Z,73.23
2018-09-02T14:12:52.298Z,73.26
2018-09-02T14:15:21.536Z,70.99
2018-09-02T14:17:50.769Z,75.90
2018-09-02T14:20:20.008Z,74.52
2018-09-02T14:22:49.240Z,75.82
2018-09-02T14:25:18.462Z,76.32
2018-09-02T14:27:47.708Z,78.58
2018-09-02T14:30:16.935Z,79.58
2018-09-02T14:32:46.178Z,79.30
2018-09-02T14:35:16.279Z,79.72
2018-09-02T14:37:45.495Z,80.08
2018-09-02T14:40:14.751Z,80.52
2018-09-02T14:42:43.979Z,80.17
2018-09-02T14:45:13.196Z,81.18
2018-09-02T14:47:42.441Z,82.66
2018-09-02T14:50:11.688Z,82.12
2018-09-02T14:52:40.926Z,82.27
2018-09-02T14:55:10.171Z,83.74
2018-09-02T14:57:39.663Z,85.09
2018-09-02T15:00:08.920Z,83.07
2018-09-02T15:02:38.211Z,84.40
2018-09-02T15:05:07.878Z,83.87
2018-09-02T15:07:37.131Z,83.79
2018-09-02T15:10:06.397Z,85.28
2018-09-02T15:12:35.614Z,85.27
2018-09-02T15:15:04.879Z,83.92
2018-09-02T15:17:34.191Z,83.51
2018-09-02T15:20:03.430Z,84.25
2018-09-02T15:22:32.676Z,83.42
2018-09-02T15:25:01.932Z,83.15
2018-09-02T15:27:31.487Z,82.21
2018-09-02T15:30:00.724Z,83.52
2018-09-02T15:32:30.066Z,83.82
2018-09-02T15:34:59.318Z,82.85
2018-09-02T15:37:28.549Z,84.23
2018-09-02T15:39:57.792Z,84.37
2018-09-02T15:42:27.080Z,87.11
2018-09-02T15:44:56.340Z,87.99
2018-09-02T15:47:25.592Z,88.00
2018-09-02T15:49:54.812Z,88.67
2018-09-02T15:52:24.058Z,89.06
2018-09-02T15:54:53.309Z,88.84
2018-09-02T15:57:22.551Z,89.30
2018-09-02T15:59:51.798Z,89.63
2018-09-02T16:02:21.022Z,90.74
2018-09-02T16:04:50.308Z,90.58
2018-09-02T16:07:19.546Z,91.49
2018-09-02T16:09:48.778Z,91.07
2018-09-02T16:12:18.015Z,91.65
2018-09-02T16:14:47.257Z,91.31
2018-09-02T16:17:16.485Z,91.66
2018-09-02T16:19:45.735Z,90.31
2018-09-02T16:22:15.007Z,90.66
2018-09-02T16:24:44.230Z,91.18
2018-09-02T16:27:13.456Z,90.31
2018-09-02T16:29:42.787Z,90.15
2018-09-02T16:32:13.216Z,90.11
2018-09-02T16:34:42.526Z,90.09
2018-09-02T16:37:11.774Z,89.50
2018-09-02T16:39:41.016Z,90.95
2018-09-02T16:42:10.264Z,90.22
2018-09-02T16:44:39.507Z,91.14
2018-09-02T16:47:08.991Z,90.52
2018-09-02T16:49:38.198Z,90.58
2018-09-02T16:52:07.431Z,91.37
2018-09-02T16:54:36.663Z,92.36
2018-09-02T16:57:06.455Z,92.01
2018-09-02T16:59:35.689Z,92.83
2018-09-02T17:02:04.952Z,92.91
2018-09-02T17:04:35.903Z,93.41
2018-09-02T17:07:05.157Z,93.05
2018-09-02T17:09:35.624Z,93.74
2018-09-02T17:12:04.971Z,94.87
2018-09-02T17:14:34.107Z,95.23
2018-09-02T17:17:03.343Z,96.64
2018-09-02T17:19:35.647Z,97.17
2018-09-02T17:22:05.278Z,97.57
2018-09-02T17:24:34.518Z,98.46
2018-09-02T17:27:03.767Z,100.00
2018-09-02T17:29:32.999Z,99.79
2018-09-02T17:32:04.920Z,99.93
2018-09-02T17:34:34.167Z,100.00
2018-09-02T17:37:03.399Z,100.00
2018-09-02T17:39:32.638Z,100.00
2018-09-02T17:42:01.888Z,100.00
2018-09-02T17:44:31.122Z,100.00
2018-09-02T17:47:01.211Z,100.00
2018-09-02T17:49:30.434Z,100.00
2018-09-02T17:51:59.675Z,100.00
2018-09-02T17:54:28.928Z,100.00
2018-09-02T17:56:58.163Z,100.00
2018-09-02T17:59:27.392Z,100.00
2018-09-02T18:01:56.761Z,100.00
2018-09-02T18:04:25.907Z,100.00
2018-09-02T18:06:55.158Z,100.00
2018-09-02T18:09:24.439Z,100.00
2018-09-02T18:11:53.691Z,100.00
2018-09-02T18:14:22.927Z,100.00
2018-09-02T18:16:52.197Z,100.00
2018-09-02T18:19:21.426Z,100.00
2018-09-02T18:21:50.668Z,100.00
2018-09-02T18:24:19.905Z,100.00
2018-09-02T18:26:49.168Z,100.00
2018-09-02T18:29:18.418Z,100.00
2018-09-02T18:31:47.779Z,100.00
2018-09-02T18:34:17.060Z,100.00
2018-09-02T18:36:46.350Z,100.00
2018-09-02T18:39:15.609Z,100.00
2018-09-02T18:41:44.845Z,100.00
2018-09-02T18:44:14.079Z,100.00
2018-09-02T18:46:43.299Z,100.00
2018-09-02T18:49:12.546Z,100.00
2018-09-02T18:51:41.776Z,100.00
2018-09-02T18:54:11.025Z,100.00
2018-09-02T18:56:40.255Z,100.00
2018-09-02T18:59:09.504Z,100.00
2018-09-02T19:01:38.734Z,100.00
2018-09-02T19:04:07.991Z,100.00
2018-09-02T19:06:43.895Z,100.00
2018-09-02T19:09:13.175Z,100.00
2018-09-02T19:11:42.480Z,100.00
2018-09-02T19:14:11.769Z,100.00
2018-09-02T19:16:41.275Z,100.00
2018-09-02T19:19:10.728Z,100.00
2018-09-02T19:21:39.952Z,100.00
2018-09-02T19:24:09.278Z,100.00
2018-09-02T19:26:38.526Z,100.00
2018-09-02T19:29:07.783Z,100.00
2018-09-02T19:31:37.014Z,100.00
2018-09-02T19:34:06.283Z,100.00
2018-09-02T19:36:35.580Z,100.00
2018-09-02T19:39:07.771Z,100.00
2018-09-02T19:41:37.127Z,100.00
2018-09-02T19:44:21.437Z,100.00
2018-09-02T19:46:50.731Z,100.00
2018-09-02T19:49:19.964Z,100.00
2018-09-02T19:51:49.234Z,100.00
2018-09-02T19:54:18.469Z,100.00
2018-09-02T19:56:48.669Z,100.00
2018-09-02T19:59:18.018Z,100.00
2018-09-02T20:01:47.253Z,100.00
2018-09-02T20:04:16.558Z,100.00
2018-09-02T20:06:45.862Z,100.00
2018-09-02T20:09:15.373Z,100.00
2018-09-02T20:11:44.578Z,100.00
2018-09-02T20:14:13.886Z,100.00
2018-09-02T20:16:43.119Z,100.00
2018-09-02T20:19:12.394Z,100.00
2018-09-02T20:21:41.598Z,100.00
2018-09-02T20:24:10.847Z,100.00
2018-09-02T20:26:40.084Z,100.00
2018-09-02T20:29:09.332Z,100.00
2018-09-02T20:31:38.634Z,100.00
2018-09-02T20:34:08.096Z,100.00
2018-09-02T20:36:37.362Z,100.00
2018-09-02T20:39:08.950Z,100.00
2018-09-02T20:41:38.235Z,100.00
2018-09-02T20:44:07.931Z,100.00
2018-09-02T20:46:37.939Z,100.00
2018-09-02T20:49:07.488Z,100.00
2018-09-02T20:51:36.744Z,100.00
2018-09-02T20:54:06.046Z,100.00
2018-09-02T20:56:35.293Z,100.00
2018-09-02T20:59:04.520Z,100.00
2018-09-02T21:01:34.018Z,100.00
2018-09-02T21:04:03.264Z,100.00
2018-09-02T21:06:33.547Z,100.00
2018-09-02T21:09:02.831Z,100.00
2018-09-02T21:11:33.147Z,100.00
2018-09-02T21:14:02.394Z,100.00
2018-09-02T21:16:31.636Z,100.00
2018-09-02T21:19:00.868Z,100.00
2018-09-02T21:21:30.114Z,100.00
2018-09-02T21:23:59.419Z,100.00
2018-09-02T21:26:28.643Z,100.00
2018-09-02T21:28:57.890Z,100.00
2018-09-02T21:31:27.122Z,100.00
2018-09-02T21:33:56.557Z,100.00
2018-09-02T21:36:25.950Z,100.00
2018-09-02T21:38:55.212Z,100.00
2018-09-02T21:41:24.442Z,100.00
2018-09-02T21:43:53.674Z,100.00
2018-09-02T21:46:22.920Z,100.00
2018-09-02T21:48:52.175Z,100.00
2018-09-02T21:51:21.408Z,100.00
2018-09-02T21:53:50.679Z,100.00
2018-09-02T21:56:19.930Z,100.00
2018-09-02T21:58:49.167Z,100.00
2018-09-02T22:01:18.414Z,100.00
2018-09-02T22:03:47.654Z,100.00
2018-09-02T22:06:16.904Z,100.00
2018-09-02T22:08:46.130Z,100.00
2018-09-02T22:11:15.375Z,100.00
2018-09-02T22:13:44.602Z,100.00
2018-09-02T22:16:13.859Z,100.00
2018-09-02T22:18:43.094Z,100.00
2018-09-02T22:21:12.343Z,100.00
2018-09-02T22:23:41.651Z,100.00
2018-09-02T22:26:10.907Z,100.00
2018-09-02T22:28:40.142Z,100.00
2018-09-02T22:31:09.390Z,100.00
2018-09-02T22:33:38.787Z,100.00
2018-09-02T22:36:08.091Z,100.00
2018-09-02T22:38:37.326Z,100.00
2018-09-02T22:41:06.704Z,100.00
2018-09-02T22:43:35.942Z,100.00
2018-09-02T22:46:05.189Z,100.00
2018-09-02T22:48:34.439Z,100.00
2018-09-02T22:51:03.662Z,100.00
2018-09-02T22:53:32.901Z,100.00
2018-09-02T22:56:02.148Z,100.00
2018-09-02T23:03:28.436Z,100.00
2018-09-02T23:05:57.721Z,100.00
2018-09-02T23:08:26.975Z,100.00
2018-09-02T23:10:56.237Z,100.00
2018-09-02T23:13:25.483Z,100.00
2018-09-02T23:15:54.724Z,100.00
2018-09-02T23:18:23.954Z,100.00
2018-09-02T23:20:53.194Z,100.00
2018-09-02T23:23:22.459Z,100.00
2018-09-02T23:25:51.704Z,100.00
2018-09-02T23:28:20.938Z,100.00
2018-09-02T23:30:50.173Z,100.00
2018-09-02T23:33:19.420Z,100.00
2018-09-02T23:35:48.645Z,100.00
2018-09-02T23:38:18.149Z,100.00
2018-09-02T23:40:47.378Z,100.00
2018-09-02T23:43:16.646Z,100.00
2018-09-02T23:45:45.887Z,100.00
2018-09-02T23:48:15.132Z,100.00
2018-09-02T23:50:44.383Z,100.00
2018-09-02T23:53:13.631Z,100.00
2018-09-02T23:55:44.111Z,100.00
2018-09-02T23:58:13.355Z,100.00
